createdAt,value
2019-02-19T00:02:22.798Z,4.28
2019-02-19T00:04:51.648Z,4.15
2019-02-19T00:07:20.546Z,4.29
2019-02-19T00:09:49.423Z,4.61
2019-02-19T00:12:18.294Z,4.57
2019-02-19T00:14:47.156Z,4.72
2019-02-19T00:17:16.030Z,4.82
2019-02-19T00:19:44.899Z,4.84
2019-02-19T00:22:13.759Z,4.89
2019-02-19T00:24:42.624Z,4.80
2019-02-19T00:27:11.481Z,4.74
2019-02-19T00:29:40.335Z,4.76
2019-02-19T00:32:09.214Z,4.79
2019-02-19T00:34:38.090Z,4.84
2019-02-19T00:37:06.931Z,4.79
2019-02-19T00:39:35.809Z,4.75
2019-02-19T00:42:04.666Z,4.71
2019-02-19T00:44:33.530Z,4.72
2019-02-19T00:47:02.404Z,4.83
2019-02-19T00:49:31.274Z,4.85
2019-02-19T00:52:00.128Z,4.87
2019-02-19T00:54:29.009Z,4.79
2019-02-19T00:56:57.882Z,4.85
2019-02-19T00:59:27.668Z,4.63
2019-02-19T01:01:56.567Z,4.68
2019-02-19T01:04:25.562Z,4.68
2019-02-19T01:06:54.452Z,4.69
2019-02-19T01:09:23.314Z,4.67
2019-02-19T01:11:52.196Z,4.69
2019-02-19T01:14:21.074Z,4.62
2019-02-19T01:16:49.950Z,4.63
2019-02-19T01:19:18.831Z,4.64
2019-02-19T01:21:47.742Z,4.73
2019-02-19T01:24:16.616Z,4.75
2019-02-19T01:26:45.511Z,4.73
2019-02-19T01:29:14.386Z,4.60
2019-02-19T01:31:43.234Z,4.66
2019-02-19T01:34:12.103Z,4.72
2019-02-19T01:36:41.331Z,4.60
2019-02-19T01:39:10.208Z,4.60
2019-02-19T01:41:39.067Z,4.67
2019-02-19T01:44:07.940Z,4.49
2019-02-19T01:46:36.824Z,4.45
2019-02-19T01:49:05.732Z,4.39
2019-02-19T01:51:34.593Z,4.28
2019-02-19T01:54:03.448Z,4.24
2019-02-19T01:56:32.346Z,4.20
2019-02-19T01:59:01.210Z,4.33
2019-02-19T02:01:30.081Z,4.37
2019-02-19T02:03:58.944Z,4.59
2019-02-19T02:06:27.819Z,4.45
2019-02-19T02:08:56.684Z,4.41
2019-02-19T02:11:25.586Z,4.33
2019-02-19T02:13:54.452Z,4.38
2019-02-19T02:16:23.314Z,4.34
2019-02-19T02:18:52.187Z,4.22
2019-02-19T02:21:21.057Z,4.29
2019-02-19T02:23:49.938Z,4.44
2019-02-19T02:26:18.819Z,4.28
2019-02-19T02:28:47.666Z,4.19
2019-02-19T02:31:16.559Z,4.27
2019-02-19T02:33:45.419Z,4.25
2019-02-19T02:36:14.288Z,4.23
2019-02-19T02:38:43.225Z,4.16
2019-02-19T02:41:12.092Z,4.24
2019-02-19T02:43:40.950Z,4.21
2019-02-19T02:46:09.833Z,4.20
2019-02-19T02:48:38.713Z,4.28
2019-02-19T02:51:07.601Z,4.26
2019-02-19T02:53:36.450Z,4.16
2019-02-19T02:56:05.337Z,4.23
2019-02-19T02:58:34.228Z,4.05
2019-02-19T03:01:03.071Z,4.12
2019-02-19T03:03:31.935Z,4.01
2019-02-19T03:06:03.330Z,4.06
2019-02-19T03:08:32.176Z,3.97
2019-02-19T03:11:01.065Z,4.04
2019-02-19T03:13:29.902Z,4.06
2019-02-19T03:16:02.438Z,4.07
2019-02-19T03:18:29.374Z,4.04
2019-02-19T03:20:58.238Z,4.14
2019-02-19T03:23:27.121Z,4.13
2019-02-19T03:25:56.030Z,4.07
2019-02-19T03:28:24.958Z,4.25
2019-02-19T03:30:53.861Z,4.16
2019-02-19T03:33:22.722Z,4.25
2019-02-19T03:35:51.597Z,4.19
2019-02-19T03:38:20.453Z,4.04
2019-02-19T03:40:49.345Z,3.93
2019-02-19T03:43:18.195Z,4.19
2019-02-19T03:45:47.068Z,3.95
2019-02-19T03:48:15.930Z,3.94
2019-02-19T03:50:44.785Z,3.96
2019-02-19T03:53:13.671Z,3.96
2019-02-19T03:55:42.533Z,3.97
2019-02-19T03:58:11.392Z,4.01
2019-02-19T04:00:40.450Z,3.91
2019-02-19T04:03:09.332Z,4.02
2019-02-19T04:05:38.221Z,3.94
2019-02-19T04:08:07.075Z,3.87
2019-02-19T04:10:35.953Z,3.99
2019-02-19T04:13:05.146Z,4.09
2019-02-19T04:15:34.014Z,3.96
2019-02-19T04:18:02.872Z,3.94
2019-02-19T04:20:31.746Z,3.92
2019-02-19T04:23:00.612Z,4.05
2019-02-19T04:25:29.484Z,4.10
2019-02-19T04:27:58.383Z,4.25
2019-02-19T04:30:27.255Z,4.54
2019-02-19T04:32:56.113Z,4.56
2019-02-19T04:35:24.993Z,4.70
2019-02-19T04:37:53.866Z,4.74
2019-02-19T04:40:22.718Z,4.82
2019-02-19T04:42:51.619Z,4.88
2019-02-19T04:45:20.505Z,4.98
2019-02-19T04:47:49.390Z,5.00
2019-02-19T04:50:19.725Z,4.95
2019-02-19T04:52:48.706Z,4.86
2019-02-19T04:55:17.752Z,4.87
2019-02-19T04:57:46.623Z,4.95
2019-02-19T05:00:15.647Z,4.89
2019-02-19T05:02:44.528Z,4.92
2019-02-19T05:05:13.403Z,4.80
2019-02-19T05:07:42.265Z,4.75
2019-02-19T05:10:11.141Z,4.77
2019-02-19T05:12:40.032Z,4.56
2019-02-19T05:15:11.035Z,4.70
2019-02-19T05:17:39.899Z,4.83
2019-02-19T05:20:09.618Z,4.94
2019-02-19T05:22:38.484Z,4.97
2019-02-19T05:25:08.143Z,5.04
2019-02-19T05:27:37.010Z,5.10
2019-02-19T05:30:09.215Z,5.08
2019-02-19T05:32:38.254Z,5.18
2019-02-19T05:35:08.252Z,5.15
2019-02-19T05:37:37.148Z,5.16
2019-02-19T05:40:08.069Z,5.16
2019-02-19T05:42:36.944Z,5.12
2019-02-19T05:45:08.758Z,5.10
2019-02-19T05:47:37.650Z,5.11
2019-02-19T05:50:08.741Z,5.21
2019-02-19T05:52:37.620Z,5.21
2019-02-19T05:55:08.155Z,5.10
2019-02-19T05:57:37.040Z,5.10
2019-02-19T06:00:09.335Z,5.17
2019-02-19T06:02:38.227Z,5.08
2019-02-19T06:05:09.131Z,5.13
2019-02-19T06:07:37.977Z,5.19
2019-02-19T06:10:09.925Z,5.03
2019-02-19T06:12:38.785Z,5.03
2019-02-19T06:15:10.017Z,5.10
2019-02-19T06:17:39.036Z,5.10
2019-02-19T06:20:08.966Z,5.11
2019-02-19T06:22:37.936Z,5.08
2019-02-19T06:25:08.799Z,5.12
2019-02-19T06:27:37.736Z,5.17
2019-02-19T06:30:09.677Z,5.04
2019-02-19T06:32:38.933Z,5.08
2019-02-19T06:35:08.851Z,5.03
2019-02-19T06:37:37.735Z,5.13
2019-02-19T06:40:09.185Z,5.26
2019-02-19T06:42:38.065Z,5.31
2019-02-19T06:45:07.081Z,5.25
2019-02-19T06:47:35.971Z,5.37
2019-02-19T06:50:05.620Z,5.52
2019-02-19T06:52:34.493Z,5.49
2019-02-19T06:55:03.399Z,5.60
2019-02-19T06:57:32.326Z,5.61
2019-02-19T07:00:01.223Z,5.62
2019-02-19T07:02:49.823Z,5.62
2019-02-19T07:05:23.311Z,5.56
2019-02-19T07:07:52.152Z,5.73
2019-02-19T07:10:21.018Z,5.69
2019-02-19T07:12:49.929Z,5.84
2019-02-19T07:15:18.823Z,5.72
2019-02-19T07:17:47.689Z,5.88
2019-02-19T07:20:16.557Z,6.05
2019-02-19T07:22:45.448Z,6.05
2019-02-19T07:25:14.306Z,6.23
2019-02-19T07:27:43.181Z,6.23
2019-02-19T07:30:12.660Z,6.23
2019-02-19T07:32:41.529Z,6.34
2019-02-19T07:35:10.913Z,6.40
2019-02-19T07:37:39.787Z,6.36
2019-02-19T07:40:09.225Z,6.52
2019-02-19T07:42:37.822Z,6.53
2019-02-19T07:45:11.625Z,6.65
2019-02-19T07:47:40.491Z,6.64
2019-02-19T07:50:11.708Z,6.75
2019-02-19T07:52:40.296Z,6.79
2019-02-19T07:55:10.805Z,6.83
2019-02-19T07:57:39.351Z,6.78
2019-02-19T08:00:12.805Z,6.87
2019-02-19T08:02:41.463Z,6.99
2019-02-19T08:05:10.104Z,6.95
2019-02-19T08:07:38.943Z,6.97
2019-02-19T08:10:11.869Z,7.08
2019-02-19T08:12:40.464Z,7.03
2019-02-19T08:15:10.862Z,7.27
2019-02-19T08:17:39.422Z,7.22
2019-02-19T08:20:15.946Z,7.32
2019-02-19T08:22:39.936Z,7.41
2019-02-19T08:25:10.029Z,7.47
2019-02-19T08:27:38.615Z,7.49
2019-02-19T08:30:11.104Z,7.67
2019-02-19T08:32:39.948Z,7.65
2019-02-19T08:35:08.505Z,7.78
2019-02-19T08:37:37.071Z,7.97
2019-02-19T08:40:08.045Z,8.04
2019-02-19T08:42:36.617Z,8.14
2019-02-19T08:45:07.125Z,8.18
2019-02-19T08:47:42.238Z,8.23
2019-02-19T08:50:07.786Z,8.21
2019-02-19T08:52:36.395Z,8.45
2019-02-19T08:55:06.134Z,8.52
2019-02-19T08:57:34.716Z,8.51
2019-02-19T09:00:04.841Z,8.62
2019-02-19T09:02:33.425Z,8.59
2019-02-19T09:05:02.024Z,8.64
2019-02-19T09:07:30.595Z,8.78
2019-02-19T09:09:59.170Z,8.77
2019-02-19T09:12:27.769Z,8.95
2019-02-19T09:14:56.337Z,9.13
2019-02-19T09:17:24.911Z,9.19
2019-02-19T09:19:53.474Z,9.23
2019-02-19T09:22:22.057Z,9.31
2019-02-19T09:24:50.637Z,9.32
2019-02-19T09:27:19.237Z,9.43
2019-02-19T09:29:47.797Z,9.42
2019-02-19T09:32:16.361Z,9.34
2019-02-19T09:34:44.969Z,9.34
2019-02-19T09:37:13.551Z,9.46
2019-02-19T09:39:42.140Z,9.47
2019-02-19T09:42:10.711Z,9.54
2019-02-19T09:44:39.318Z,9.38
2019-02-19T09:47:07.907Z,9.41
2019-02-19T09:49:36.473Z,9.44
2019-02-19T09:52:05.179Z,9.39
2019-02-19T09:54:33.822Z,9.35
2019-02-19T09:57:02.405Z,9.34
2019-02-19T09:59:31.360Z,9.41
2019-02-19T10:01:59.945Z,9.46
2019-02-19T10:04:28.519Z,9.48
2019-02-19T10:06:57.222Z,9.57
2019-02-19T10:09:25.815Z,9.59
2019-02-19T10:11:54.381Z,9.66
2019-02-19T10:14:22.988Z,9.66
2019-02-19T10:16:51.543Z,9.58
2019-02-19T10:19:20.117Z,9.40
2019-02-19T10:21:48.711Z,9.51
2019-02-19T10:24:17.302Z,9.34
2019-02-19T10:26:45.866Z,9.31
2019-02-19T10:29:14.434Z,9.38
2019-02-19T10:31:43.015Z,9.38
2019-02-19T10:34:11.587Z,9.73
2019-02-19T10:36:40.265Z,9.80
2019-02-19T10:39:10.953Z,9.75
2019-02-19T10:41:39.537Z,9.77
2019-02-19T10:44:08.111Z,9.77
2019-02-19T10:46:36.834Z,9.62
2019-02-19T10:49:05.426Z,9.62
2019-02-19T10:51:34.067Z,9.70
2019-02-19T10:54:02.632Z,9.70
2019-02-19T10:56:31.210Z,9.68
2019-02-19T10:58:59.786Z,9.71
2019-02-19T11:01:28.384Z,9.79
2019-02-19T11:03:56.956Z,9.79
2019-02-19T11:06:25.537Z,9.90
2019-02-19T11:08:54.110Z,9.90
2019-02-19T11:11:22.695Z,9.98
2019-02-19T11:13:51.296Z,10.07
2019-02-19T11:16:19.878Z,10.07
2019-02-19T11:18:48.475Z,10.12
2019-02-19T11:21:19.658Z,10.12
2019-02-19T11:23:47.376Z,10.23
2019-02-19T11:26:15.955Z,10.23
2019-02-19T11:28:44.532Z,10.34
2019-02-19T11:31:13.113Z,10.35
2019-02-19T11:33:41.706Z,10.35
2019-02-19T11:36:10.278Z,10.32
2019-02-19T11:38:38.899Z,10.32
2019-02-19T11:41:07.474Z,10.43
2019-02-19T11:43:36.031Z,10.38
2019-02-19T11:46:04.624Z,10.29
2019-02-19T11:48:36.970Z,10.50
2019-02-19T11:51:03.530Z,10.46
2019-02-19T11:53:32.110Z,10.51
2019-02-19T11:56:00.674Z,10.34
2019-02-19T11:58:29.270Z,10.24
2019-02-19T12:00:57.853Z,10.24
2019-02-19T12:03:26.467Z,10.10
2019-02-19T12:05:55.029Z,10.20
2019-02-19T12:08:23.685Z,10.19
2019-02-19T12:10:52.303Z,10.19
2019-02-19T12:13:20.903Z,10.19
2019-02-19T12:15:49.486Z,10.19
2019-02-19T12:18:18.065Z,10.59
2019-02-19T12:20:46.664Z,10.59
2019-02-19T12:23:15.245Z,10.53
2019-02-19T12:25:43.893Z,10.75
2019-02-19T12:28:12.482Z,10.73
2019-02-19T12:30:41.064Z,10.73
2019-02-19T12:33:09.649Z,10.73
2019-02-19T12:35:38.275Z,10.58
2019-02-19T12:38:06.830Z,10.78
2019-02-19T12:40:35.408Z,10.61
2019-02-19T12:43:04.072Z,10.59
2019-02-19T12:45:32.649Z,10.55
2019-02-19T12:48:01.250Z,10.41
2019-02-19T12:50:29.826Z,10.70
2019-02-19T12:52:58.455Z,10.72
2019-02-19T12:55:27.049Z,10.82
2019-02-19T12:57:55.631Z,10.97
2019-02-19T13:00:24.215Z,10.97
2019-02-19T13:02:52.826Z,10.94
2019-02-19T13:05:21.441Z,10.84
2019-02-19T13:07:50.036Z,10.89
2019-02-19T13:10:18.656Z,10.84
2019-02-19T13:12:49.065Z,10.83
2019-02-19T13:15:19.430Z,10.67
2019-02-19T13:17:48.010Z,10.64
2019-02-19T13:20:16.602Z,10.71
2019-02-19T13:22:47.283Z,10.66
2019-02-19T13:25:15.910Z,10.66
2019-02-19T13:27:44.483Z,10.71
2019-02-19T13:30:17.993Z,10.66
2019-02-19T13:32:46.565Z,10.70
2019-02-19T13:35:15.228Z,10.66
2019-02-19T13:37:43.786Z,10.63
2019-02-19T13:40:17.361Z,10.66
2019-02-19T13:42:45.966Z,10.60
2019-02-19T13:45:15.498Z,10.61
2019-02-19T13:47:44.071Z,10.67
2019-02-19T13:50:24.586Z,10.52
2019-02-19T13:52:54.795Z,10.64
2019-02-19T13:55:25.035Z,10.62
2019-02-19T13:57:53.641Z,10.66
2019-02-19T14:00:23.853Z,10.83
2019-02-19T14:02:52.452Z,10.67
2019-02-19T14:05:21.051Z,10.71
2019-02-19T14:07:49.644Z,10.64
2019-02-19T14:10:18.224Z,10.55
2019-02-19T14:12:46.790Z,10.59
2019-02-19T14:15:17.048Z,10.50
2019-02-19T14:17:45.631Z,10.47
2019-02-19T14:20:15.891Z,10.47
2019-02-19T14:22:46.152Z,10.54
2019-02-19T14:25:16.320Z,10.54
2019-02-19T14:28:01.556Z,10.57
2019-02-19T14:30:31.777Z,10.70
2019-02-19T14:33:07.734Z,10.79
2019-02-19T14:35:55.680Z,10.83
2019-02-19T14:38:28.630Z,10.86
2019-02-19T14:40:58.833Z,10.89
2019-02-19T14:43:45.319Z,10.71
2019-02-19T14:46:32.088Z,10.64
2019-02-19T14:49:14.396Z,10.62
2019-02-19T14:52:02.443Z,10.81
2019-02-19T14:54:32.680Z,10.78
2019-02-19T14:57:05.316Z,10.62
2019-02-19T14:59:35.554Z,10.48
2019-02-19T15:02:21.118Z,10.45
2019-02-19T15:05:09.150Z,10.43
2019-02-19T15:07:43.038Z,10.43
2019-02-19T15:10:16.176Z,10.46
2019-02-19T15:12:46.425Z,10.46
2019-02-19T15:15:16.639Z,10.45
2019-02-19T15:17:46.873Z,10.30
2019-02-19T15:20:23.406Z,10.28
2019-02-19T15:22:56.715Z,10.28
2019-02-19T15:25:29.638Z,10.24
2019-02-19T15:28:12.137Z,10.24
2019-02-19T15:30:42.382Z,10.24
2019-02-19T15:33:18.599Z,10.13
2019-02-19T15:36:00.816Z,10.12
2019-02-19T15:38:40.091Z,10.12
2019-02-19T15:41:16.137Z,10.09
2019-02-19T15:43:46.345Z,10.09
2019-02-19T15:46:31.816Z,10.10
2019-02-19T15:49:07.669Z,10.00
2019-02-19T15:51:52.674Z,10.08
2019-02-19T15:54:28.972Z,9.95
2019-02-19T15:56:59.214Z,9.95
2019-02-19T15:59:32.128Z,9.95
2019-02-19T16:02:11.092Z,9.95
2019-02-19T16:04:41.311Z,9.92
2019-02-19T16:07:27.731Z,9.92
2019-02-19T16:10:10.133Z,9.86
2019-02-19T16:12:45.891Z,9.86
2019-02-19T16:15:24.992Z,9.84
2019-02-19T16:17:55.191Z,9.87
2019-02-19T16:20:25.431Z,9.87
2019-02-19T16:23:10.488Z,9.81
2019-02-19T16:25:46.341Z,9.82
2019-02-19T16:28:28.234Z,9.82
2019-02-19T16:31:00.943Z,9.80
2019-02-19T16:33:31.190Z,9.80
2019-02-19T16:36:01.432Z,9.76
2019-02-19T16:38:31.621Z,9.85
2019-02-19T16:41:10.761Z,9.89
2019-02-19T16:43:41.006Z,9.83
2019-02-19T16:46:11.205Z,9.75
2019-02-19T16:48:41.414Z,9.81
2019-02-19T16:51:16.382Z,9.87
2019-02-19T16:54:02.429Z,9.92
2019-02-19T16:56:49.122Z,9.83
2019-02-19T16:59:26.961Z,9.82
2019-02-19T17:02:07.817Z,9.80
2019-02-19T17:04:38.043Z,9.78
2019-02-19T17:07:23.532Z,9.78
2019-02-19T17:10:00.825Z,9.72
2019-02-19T17:12:47.538Z,9.72
2019-02-19T17:15:17.707Z,9.72
2019-02-19T17:17:47.911Z,9.63
2019-02-19T17:20:28.788Z,9.74
2019-02-19T17:22:53.058Z,9.74
2019-02-19T17:25:23.280Z,9.72
2019-02-19T17:28:02.344Z,9.61
2019-02-19T17:30:38.220Z,9.73
2019-02-19T17:33:08.439Z,9.64
2019-02-19T17:35:52.472Z,9.64
2019-02-19T17:38:28.565Z,9.72
2019-02-19T17:41:01.220Z,9.65
2019-02-19T17:43:44.735Z,9.67
2019-02-19T17:46:14.934Z,9.64
2019-02-19T17:48:48.210Z,9.66
2019-02-19T17:51:24.360Z,9.69
2019-02-19T17:53:57.404Z,9.65
2019-02-19T17:56:27.602Z,9.59
2019-02-19T17:59:14.250Z,9.66
2019-02-19T18:01:44.476Z,9.63
2019-02-19T18:04:17.389Z,9.68
2019-02-19T18:06:53.611Z,9.62
2019-02-19T18:09:26.601Z,9.57
2019-02-19T18:12:11.768Z,9.50
2019-02-19T18:14:44.405Z,9.55
2019-02-19T18:17:26.588Z,9.56
2019-02-19T18:19:55.190Z,9.46
2019-02-19T18:22:23.774Z,9.46
2019-02-19T18:24:52.361Z,9.50
2019-02-19T18:27:20.913Z,9.54
2019-02-19T18:29:49.483Z,9.57
2019-02-19T18:32:18.075Z,9.58
2019-02-19T18:34:46.663Z,9.52
2019-02-19T18:37:15.255Z,9.40
2019-02-19T18:39:43.858Z,9.50
2019-02-19T18:42:12.417Z,9.51
2019-02-19T18:44:41.005Z,9.41
2019-02-19T18:47:09.965Z,9.52
2019-02-19T18:49:38.534Z,9.53
2019-02-19T18:52:07.156Z,9.50
2019-02-19T18:54:35.757Z,9.58
2019-02-19T18:57:04.303Z,9.51
2019-02-19T18:59:32.953Z,9.44
2019-02-19T19:02:01.528Z,9.41
2019-02-19T19:04:30.097Z,9.41
2019-02-19T19:06:58.719Z,9.40
2019-02-19T19:09:27.308Z,9.46
2019-02-19T19:11:55.894Z,9.43
2019-02-19T19:14:24.482Z,9.39
2019-02-19T19:16:53.080Z,9.43
2019-02-19T19:19:21.663Z,9.47
2019-02-19T19:21:50.246Z,9.46
2019-02-19T19:24:18.834Z,9.48
2019-02-19T19:26:47.444Z,9.53
2019-02-19T19:29:16.026Z,9.50
2019-02-19T19:31:44.612Z,9.47
2019-02-19T19:34:14.186Z,9.40
2019-02-19T19:36:42.764Z,9.35
2019-02-19T19:39:11.346Z,9.39
2019-02-19T19:41:39.935Z,9.39
2019-02-19T19:44:09.589Z,8.96
2019-02-19T19:46:38.189Z,8.73
2019-02-19T19:49:06.750Z,8.22
2019-02-19T19:51:35.323Z,7.80
2019-02-19T19:54:03.933Z,7.42
2019-02-19T19:56:32.518Z,7.33
2019-02-19T19:59:02.585Z,7.31
2019-02-19T20:01:31.138Z,7.36
2019-02-19T20:03:59.724Z,7.32
2019-02-19T20:06:28.882Z,7.26
2019-02-19T20:08:57.593Z,7.30
2019-02-19T20:11:27.739Z,7.33
2019-02-19T20:13:56.337Z,7.28
2019-02-19T20:16:24.913Z,7.27
2019-02-19T20:18:53.493Z,7.23
2019-02-19T20:21:26.711Z,7.29
2019-02-19T20:23:52.960Z,7.26
2019-02-19T20:26:24.949Z,7.22
2019-02-19T20:28:53.513Z,7.27
2019-02-19T20:31:22.085Z,7.25
2019-02-19T20:33:50.715Z,7.34
2019-02-19T20:36:19.389Z,7.29
2019-02-19T20:38:49.430Z,7.25
2019-02-19T20:41:18.006Z,7.25
2019-02-19T20:43:46.593Z,7.20
2019-02-19T20:46:15.172Z,7.19
2019-02-19T20:48:43.741Z,7.10
2019-02-19T20:51:12.374Z,6.99
2019-02-19T20:53:41.747Z,7.00
2019-02-19T20:56:10.333Z,6.89
2019-02-19T20:58:40.085Z,6.85
2019-02-19T21:01:10.192Z,6.89
2019-02-19T21:03:38.782Z,6.96
2019-02-19T21:06:07.740Z,6.93
2019-02-19T21:08:36.623Z,6.93
2019-02-19T21:11:05.215Z,7.08
2019-02-19T21:13:33.796Z,7.04
2019-02-19T21:16:02.421Z,7.07
2019-02-19T21:18:31.007Z,7.09
2019-02-19T21:20:59.677Z,7.14
2019-02-19T21:23:29.287Z,7.19
2019-02-19T21:25:57.919Z,7.12
2019-02-19T21:28:26.488Z,7.17
2019-02-19T21:30:55.064Z,7.16
2019-02-19T21:33:24.490Z,7.18
2019-02-19T21:35:57.594Z,7.21
2019-02-19T21:38:23.411Z,7.10
2019-02-19T21:40:52.015Z,7.12
2019-02-19T21:43:20.594Z,7.11
2019-02-19T21:45:49.156Z,7.04
2019-02-19T21:48:17.730Z,6.98
2019-02-19T21:50:46.329Z,6.90
2019-02-19T21:53:14.954Z,6.88
2019-02-19T21:55:43.563Z,6.90
2019-02-19T21:58:12.151Z,6.81
2019-02-19T22:00:40.728Z,6.84
2019-02-19T22:03:09.332Z,6.73
2019-02-19T22:05:38.229Z,6.76
2019-02-19T22:08:06.814Z,6.75
2019-02-19T22:10:35.363Z,6.76
2019-02-19T22:13:04.286Z,6.82
2019-02-19T22:15:32.855Z,6.82
2019-02-19T22:18:01.711Z,6.90
2019-02-19T22:20:38.459Z,6.86
2019-02-19T22:23:07.415Z,6.86
2019-02-19T22:25:35.941Z,6.85
2019-02-19T22:28:05.989Z,6.87
2019-02-19T22:30:34.685Z,6.87
2019-02-19T22:33:03.228Z,6.87
2019-02-19T22:35:31.767Z,6.94
2019-02-19T22:38:00.646Z,6.90
2019-02-19T22:40:29.207Z,6.94
2019-02-19T22:42:57.764Z,6.89
2019-02-19T22:45:26.623Z,6.94
2019-02-19T22:47:55.506Z,7.03
2019-02-19T22:50:24.056Z,7.03
2019-02-19T22:52:53.414Z,7.08
2019-02-19T22:55:23.608Z,6.98
2019-02-19T22:57:52.232Z,6.87
2019-02-19T23:00:25.468Z,6.90
2019-02-19T23:02:54.200Z,6.90
2019-02-19T23:05:23.768Z,6.86
2019-02-19T23:07:53.793Z,6.90
2019-02-19T23:10:22.438Z,6.84
2019-02-19T23:12:51.339Z,6.85
2019-02-19T23:15:19.901Z,6.81
2019-02-19T23:17:48.481Z,6.89
2019-02-19T23:20:17.047Z,6.83
2019-02-19T23:22:45.908Z,6.89
2019-02-19T23:25:14.765Z,6.78
2019-02-19T23:27:43.355Z,6.72
2019-02-19T23:30:12.021Z,6.79
2019-02-19T23:32:40.564Z,6.80
2019-02-19T23:35:10.800Z,6.76
2019-02-19T23:37:39.355Z,6.76
2019-02-19T23:40:08.266Z,6.84
2019-02-19T23:42:36.834Z,6.84
2019-02-19T23:45:07.744Z,6.70
2019-02-19T23:47:36.306Z,6.74
2019-02-19T23:50:07.132Z,6.76
2019-02-19T23:52:35.678Z,6.89
2019-02-19T23:55:06.224Z,6.83
2019-02-19T23:57:34.770Z,6.85
